Time;durP1;ratioP1;P1;durP2;ratioP2;P2;SDS_P1;SDS_P2;PMS_P1;PMS_P2;Temp;Humidity;BMP_temperature;BMP_pressure;BME280_temperature;BME280_humidity;BME280_pressure;Samples;Min_cycle;Max_cycle;Signal;HPM_P1;HPM_P2
2022/10/31 00:00:46;;;;;;;6.08;1.77;;;;;;;8.42;100.00;99349.34;1712133;81;21040;-70
2022/10/31 00:03:13;;;;;;;5.85;1.60;;;;;;;8.37;100.00;99344.72;1713355;81;21024;-69
2022/10/31 00:05:47;;;;;;;5.80;1.55;;;;;;;8.40;100.00;99346.07;1723348;81;21028;-68
2022/10/31 00:08:16;;;;;;;5.17;1.50;;;;;;;8.44;100.00;99345.81;1745439;81;20992;-68
2022/10/31 00:10:45;;;;;;;5.28;1.35;;;;;;;8.40;100.00;99346.07;1727554;81;21017;-68
2022/10/31 00:13:12;;;;;;;7.75;1.52;;;;;;;8.39;100.00;99348.00;1706333;81;21507;-68
2022/10/31 00:15:41;;;;;;;5.70;1.40;;;;;;;8.41;100.00;99345.81;1769591;79;21094;-68
2022/10/31 00:18:08;;;;;;;7.10;1.70;;;;;;;8.41;100.00;99354.48;1776860;79;20996;-69
2022/10/31 00:20:35;;;;;;;5.10;1.50;;;;;;;8.36;100.00;99351.21;1759966;80;21078;-69
2022/10/31 00:23:03;;;;;;;6.25;1.50;;;;;;;8.33;100.00;99343.61;1766728;79;21549;-69
2022/10/31 00:25:35;;;;;;;3.40;1.15;;;;;;;8.36;100.00;99347.14;1737874;80;21419;-69
2022/10/31 00:28:03;;;;;;;5.95;1.42;;;;;;;8.37;100.00;99343.36;1750342;80;21609;-68
2022/10/31 00:30:32;;;;;;;5.45;1.37;;;;;;;8.35;100.00;99339.30;1737103;82;21571;-68
2022/10/31 00:32:58;;;;;;;;;;;;;;;8.33;100.00;99345.51;1781299;79;20991;-68
2022/10/31 00:35:26;;;;;;;7.20;1.67;;;;;;;8.33;100.00;99345.51;1775318;78;21031;-68
2022/10/31 00:37:54;;;;;;;4.60;1.40;;;;;;;8.30;100.00;99342.80;1776906;79;21034;-69
2022/10/31 00:40:21;;;;;;;6.15;1.40;;;;;;;8.31;100.00;99347.69;1720285;82;21091;-69
2022/10/31 00:42:48;;;;;;;5.65;1.65;;;;;;;8.26;100.00;99342.20;1779385;79;21042;-69
2022/10/31 00:45:16;;;;;;;6.58;1.40;;;;;;;8.26;100.00;99351.69;1718196;82;21154;-68
2022/10/31 00:47:43;;;;;;;5.53;1.42;;;;;;;8.27;100.00;99348.72;1711346;82;21047;-69
2022/10/31 00:50:11;;;;;;;6.17;1.52;;;;;;;8.25;100.00;99350.91;1772842;79;21083;-69
2022/10/31 00:52:39;;;;;;;8.68;2.15;;;;;;;8.25;100.00;99342.77;1711149;82;21364;-68
2022/10/31 00:55:06;;;;;;;;;;;;;;;8.31;100.00;99353.11;1757527;79;21076;-68
2022/10/31 00:57:34;;;;;;;4.90;1.22;;;;;;;8.28;100.00;99353.11;1741723;79;20127;-68
2022/10/31 01:00:03;;;;;;;6.20;1.20;;;;;;;8.17;100.00;99354.11;1737491;79;21027;-69
2022/10/31 01:02:30;;;;;;;6.97;1.40;;;;;;;8.21;100.00;99345.73;1736451;80;21012;-68
2022/10/31 01:04:56;;;;;;;5.87;1.20;;;;;;;8.24;100.00;99337.59;1765520;79;21685;-68
2022/10/31 01:07:23;;;;;;;7.22;1.67;;;;;;;8.27;100.00;99350.61;1722786;81;21009;-68
2022/10/31 01:09:50;;;;;;;7.58;1.27;;;;;;;8.30;100.00;99355.53;1749864;81;21059;-69
2022/10/31 01:12:17;;;;;;;5.08;1.50;;;;;;;8.25;100.00;99359.57;1764315;79;21035;-68
2022/10/31 01:14:46;;;;;;;6.20;1.42;;;;;;;8.25;100.00;99360.93;1762075;79;21616;-68
2022/10/31 01:17:14;;;;;;;6.03;1.52;;;;;;;8.28;100.00;99352.26;1757873;79;21063;-68
2022/10/31 01:19:40;;;;;;;6.08;1.42;;;;;;;8.27;100.00;99351.44;1758673;79;21055;-69
2022/10/31 01:22:06;;;;;;;4.15;1.22;;;;;;;8.27;100.00;99354.69;1770838;79;21086;-69
2022/10/31 01:24:35;;;;;;;4.53;1.15;;;;;;;8.31;100.00;99351.22;1733989;81;21068;-68
2022/10/31 01:27:02;;;;;;;5.17;1.45;;;;;;;8.35;100.00;99348.25;1724206;80;21094;-69
2022/10/31 01:29:31;;;;;;;7.30;1.75;;;;;;;8.35;100.00;99344.72;1756627;79;21071;-69
2022/10/31 01:31:59;;;;;;;6.25;1.50;;;;;;;8.32;100.00;99350.68;1779920;79;21051;-69
2022/10/31 01:34:26;;;;;;;;;;;;;;;8.28;100.00;99352.26;1773835;79;21063;-69
2022/10/31 01:36:53;;;;;;;4.62;1.20;;;;;;;8.30;100.00;99363.67;1741207;79;20126;-69
2022/10/31 01:39:21;;;;;;;7.20;1.50;;;;;;;8.25;100.00;99359.57;1754209;79;21059;-69
2022/10/31 01:41:50;;;;;;;7.17;1.25;;;;;;;8.19;100.00;99364.14;1766499;79;21113;-70
2022/10/31 01:44:22;;;;;;;5.92;1.20;;;;;;;8.21;100.00;99358.47;1779894;79;21050;-69
2022/10/31 01:46:53;;;;;;;6.45;1.40;;;;;;;8.26;100.00;99367.95;1763007;79;21433;-70
2022/10/31 01:49:40;;;;;;;4.15;1.20;;;;;;;8.25;100.00;99359.03;1756246;79;21158;-70
2022/10/31 01:52:20;;;;;;;5.50;1.10;;;;;;;8.24;100.00;99363.36;1748895;79;21043;-69
2022/10/31 01:54:51;;;;;;;7.62;1.15;;;;;;;8.27;100.00;99369.60;1765211;78;21057;-69
2022/10/31 01:57:18;;;;;;;6.40;1.25;;;;;;;8.25;100.00;99371.23;1773710;79;21007;-69
2022/10/31 01:59:47;;;;;;;5.75;1.20;;;;;;;8.18;100.00;99369.31;1744850;80;21573;-69
2022/10/31 02:02:14;;;;;;;5.75;1.10;;;;;;;8.19;100.00;99366.03;1791134;79;21513;-70
2022/10/31 02:04:40;;;;;;;4.85;1.22;;;;;;;8.23;100.00;99363.89;1734786;82;21027;-69
2022/10/31 02:07:16;;;;;;;6.75;1.22;;;;;;;8.24;100.00;99358.75;1731878;81;21618;-69
2022/10/31 02:09:45;;;;;;;8.10;1.70;;;;;;;8.19;100.00;99360.08;1736957;80;21048;-69
2022/10/31 02:12:11;;;;;;;6.90;1.40;;;;;;;8.20;100.00;99364.96;1715228;82;21076;-69
2022/10/31 02:14:38;;;;;;;5.53;1.50;;;;;;;8.22;100.00;99371.74;1778424;79;21058;-68
2022/10/31 02:17:05;;;;;;;6.28;1.35;;;;;;;8.20;100.00;99373.91;1778894;79;21118;-68
2022/10/31 02:20:00;;;;;;;7.08;1.42;;;;;;;8.13;100.00;99373.34;1741023;80;21108;-69
2022/10/31 02:22:32;;;;;;;6.58;1.37;;;;;;;8.11;100.00;99379.58;1741573;80;21016;-70
2022/10/31 02:25:54;;;;;;;6.40;1.40;;;;;;;8.14;100.00;99390.43;1775627;79;21082;-69
2022/10/31 02:28:27;;;;;;;4.90;1.30;;;;;;;8.12;100.00;99387.97;1777496;80;21086;-69
2022/10/31 02:31:17;;;;;;;7.65;1.60;;;;;;;8.03;100.00;99396.34;1743669;80;21044;-69
2022/10/31 02:33:51;;;;;;;7.58;1.30;;;;;;;8.07;100.00;99397.45;1776585;78;21136;-69
2022/10/31 02:36:44;;;;;;;8.05;1.42;;;;;;;8.07;100.00;99399.34;1734677;80;21066;-69
2022/10/31 02:39:27;;;;;;;4.83;1.12;;;;;;;8.06;100.00;99412.61;1775238;79;21149;-68
2022/10/31 02:42:08;;;;;;;4.00;1.10;;;;;;;8.15;100.00;99406.42;1773444;78;21039;-69
2022/10/31 02:44:47;;;;;;;5.87;1.30;;;;;;;8.19;100.00;99412.95;1780727;80;21066;-68
2022/10/31 02:47:18;;;;;;;4.08;1.20;;;;;;;8.17;100.00;99412.94;1775470;78;21026;-68
2022/10/31 02:50:08;;;;;;;4.08;1.10;;;;;;;8.15;100.00;99418.62;1737971;80;21100;-68
2022/10/31 02:52:36;;;;;;;6.12;1.40;;;;;;;8.20;100.00;99418.66;1765318;78;21058;-68
2022/10/31 02:55:30;;;;;;;6.00;1.40;;;;;;;8.18;100.00;99416.77;1770783;79;22179;-68
2022/10/31 02:58:03;;;;;;;6.62;1.12;;;;;;;8.10;100.00;99430.81;1757793;79;21027;-68
2022/10/31 03:00:33;;;;;;;6.87;1.50;;;;;;;8.11;100.00;99420.25;1760763;80;20987;-69
2022/10/31 03:03:17;;;;;;;4.75;1.20;;;;;;;8.08;100.00;99425.38;1777683;79;21533;-68
2022/10/31 03:05:59;;;;;;;7.03;1.30;;;;;;;8.03;100.00;99430.23;1759658;79;21342;-68
2022/10/31 03:08:37;;;;;;;6.78;1.55;;;;;;;8.03;100.00;99430.23;1778213;79;21023;-68
2022/10/31 03:11:06;;;;;;;6.72;1.40;;;;;;;7.96;100.00;99429.11;1771710;79;21466;-68
2022/10/31 03:13:51;;;;;;;5.72;0.88;;;;;;;7.84;100.00;99432.54;1769600;79;21629;-68
2022/10/31 03:16:33;;;;;;;3.33;1.10;;;;;;;7.87;100.00;99439.33;1776608;79;21514;-69
2022/10/31 03:19:14;;;;;;;9.28;1.20;;;;;;;7.88;100.00;99447.73;1762900;80;21070;-68
2022/10/31 03:21:55;;;;;;;4.12;0.95;;;;;;;7.79;100.00;99464.22;1758926;79;21676;-68
2022/10/31 03:24:25;;;;;;;5.65;1.30;;;;;;;7.77;100.00;99463.11;1759940;79;21788;-68
2022/10/31 03:26:54;;;;;;;6.53;1.45;;;;;;;7.78;100.00;99464.76;1782237;79;21090;-68
2022/10/31 03:29:23;;;;;;;4.20;1.10;;;;;;;7.75;100.00;99467.17;1782725;79;21128;-69
2022/10/31 03:32:03;;;;;;;5.05;0.95;;;;;;;7.67;100.00;99484.72;1758186;80;21565;-68
2022/10/31 03:34:30;;;;;;;6.30;1.42;;;;;;;7.68;100.00;99482.30;1763641;79;21047;-68
2022/10/31 03:36:59;;;;;;;6.05;1.42;;;;;;;7.73;100.00;99489.09;1789669;79;21596;-69
2022/10/31 03:39:26;;;;;;;4.50;0.90;;;;;;;7.72;100.00;99489.37;1774833;79;21608;-69
2022/10/31 03:41:56;;;;;;;;;;;;;;;7.72;100.00;99497.50;1778200;79;21070;-68
2022/10/31 03:44:24;;;;;;;4.85;1.05;;;;;;;7.74;100.00;99489.38;1765782;79;20136;-68
2022/10/31 03:46:53;;;;;;;3.60;1.02;;;;;;;7.71;100.00;99480.95;1757550;79;21121;-68
2022/10/31 03:49:21;;;;;;;3.33;1.05;;;;;;;7.66;100.00;99481.72;1764740;79;22010;-68
2022/10/31 03:52:19;;;;;;;4.83;1.05;;;;;;;7.69;100.00;99493.92;1728808;80;21074;-68
2022/10/31 03:54:48;;;;;;;3.50;1.02;;;;;;;7.77;100.00;99497.52;1770401;78;21524;-69
2022/10/31 03:57:29;;;;;;;6.85;1.15;;;;;;;7.77;100.00;99500.23;1801402;78;21347;-68
2022/10/31 04:00:09;;;;;;;4.03;0.98;;;;;;;7.74;100.00;99499.39;1788951;78;21111;-69
2022/10/31 04:02:42;;;;;;;4.97;1.05;;;;;;;7.80;100.00;99511.37;1764297;79;21592;-68
2022/10/31 04:05:09;;;;;;;5.90;1.12;;;;;;;7.75;100.00;99506.45;1779849;80;21030;-68
2022/10/31 04:07:42;;;;;;;4.33;1.05;;;;;;;7.70;100.00;99514.00;1763257;78;21010;-68
2022/10/31 04:10:11;;;;;;;4.05;0.82;;;;;;;7.71;100.00;99521.59;1765581;79;21569;-69
2022/10/31 04:12:38;;;;;;;4.58;1.20;;;;;;;7.64;100.00;99520.98;1802318;78;21039;-68
2022/10/31 04:15:07;;;;;;;4.17;0.88;;;;;;;7.54;100.00;99520.91;1763841;79;21104;-68
2022/10/31 04:17:36;;;;;;;3.67;1.02;;;;;;;7.51;100.00;99518.15;1766080;80;21073;-69
2022/10/31 04:20:04;;;;;;;4.80;1.57;;;;;;;7.55;100.00;99523.88;1742073;79;21043;-69
2022/10/31 04:22:31;;;;;;;4.50;1.07;;;;;;;7.48;100.00;99533.03;1678358;83;21110;-69
2022/10/31 04:25:00;;;;;;;4.08;1.00;;;;;;;7.39;100.00;99533.76;1772473;79;21141;-69
2022/10/31 04:27:26;;;;;;;;;;;;;;;7.39;100.00;99538.64;1745433;80;21022;-69
2022/10/31 04:29:52;;;;;;;4.83;1.00;;;;;;;7.41;100.00;99542.44;1763993;79;20158;-69
2022/10/31 04:32:19;;;;;;;;;;;;;;;7.28;100.00;99538.25;1771772;80;21070;-68
2022/10/31 04:34:46;;;;;;;4.17;1.05;;;;;;;7.22;100.00;99537.93;1751509;79;20145;-68
2022/10/31 04:37:13;;;;;;;2.87;0.70;;;;;;;7.14;100.00;99537.55;1809140;79;21082;-68
2022/10/31 04:39:40;;;;;;;3.35;0.90;;;;;;;7.18;100.00;99540.86;1801800;78;21121;-69
2022/10/31 04:42:25;;;;;;;4.95;0.95;;;;;;;7.17;100.00;99545.98;1766666;78;21083;-69
2022/10/31 04:44:52;;;;;;;3.72;0.98;;;;;;;7.07;100.00;99546.41;1691713;82;21677;-69
2022/10/31 04:47:19;;;;;;;2.17;0.78;;;;;;;7.07;100.00;99547.23;1784843;78;21086;-69
2022/10/31 04:49:45;;;;;;;3.62;0.80;;;;;;;7.13;100.00;99552.15;1721580;80;21151;-69
2022/10/31 04:52:12;;;;;;;3.35;0.98;;;;;;;7.11;100.00;99550.24;1725590;82;21045;-69
2022/10/31 04:54:38;;;;;;;4.87;0.80;;;;;;;7.02;100.00;99549.86;1775956;79;21542;-68
2022/10/31 04:57:25;;;;;;;3.70;0.72;;;;;;;6.96;100.00;99558.47;1686715;84;21052;-68
2022/10/31 04:59:51;;;;;;;3.50;0.70;;;;;;;6.96;100.00;99568.47;1693295;84;21055;-68
2022/10/31 05:02:18;;;;;;;;;;;;;;;6.96;100.00;99566.59;1717415;81;21023;-69
2022/10/31 05:04:49;;;;;;;2.08;0.72;;;;;;;6.88;100.00;99571.61;1763113;79;20128;-69
2022/10/31 05:07:15;;;;;;;3.33;1.00;;;;;;;6.74;100.00;99581.98;1740023;80;21522;-69
2022/10/31 05:09:43;;;;;;;2.30;0.70;;;;;;;6.79;100.00;99583.95;1756803;79;21473;-69
2022/10/31 05:12:09;;;;;;;2.37;1.10;;;;;;;6.82;100.00;99591.56;1764128;79;21047;-69
2022/10/31 05:14:50;;;;;;;6.70;0.70;;;;;;;6.78;100.00;99597.19;1759721;79;21125;-68
2022/10/31 05:17:35;;;;;;;5.05;1.10;;;;;;;6.72;100.00;99606.31;1762492;79;21122;-69
2022/10/31 05:20:11;;;;;;;4.30;1.05;;;;;;;6.74;100.00;99613.09;1768435;79;21724;-69
2022/10/31 05:22:48;;;;;;;4.05;0.68;;;;;;;6.77;100.00;99622.06;1721948;79;21078;-68
2022/10/31 05:25:15;;;;;;;2.92;0.93;;;;;;;6.71;100.00;99625.78;1755235;79;21735;-67
2022/10/31 05:27:45;;;;;;;4.83;1.10;;;;;;;6.68;100.00;99628.16;1776420;79;21052;-66
2022/10/31 05:30:13;;;;;;;5.35;1.17;;;;;;;6.72;100.00;99631.48;1767272;79;21051;-67
2022/10/31 05:32:46;;;;;;;5.00;1.10;;;;;;;6.78;100.00;99637.23;1729760;80;21090;-67
2022/10/31 05:35:34;;;;;;;7.67;1.40;;;;;;;6.75;100.00;99636.39;1768455;79;21332;-66
2022/10/31 05:38:09;;;;;;;3.40;1.00;;;;;;;6.73;100.00;99646.62;1715110;81;21049;-66
2022/10/31 05:40:35;;;;;;;;;;;;;;;6.77;100.00;99652.36;1694466;82;20997;-70
2022/10/31 05:43:02;;;;;;;3.83;1.00;;;;;;;6.86;100.00;99659.00;1701624;84;20183;-67
2022/10/31 05:45:28;;;;;;;3.05;0.78;;;;;;;6.84;100.00;99666.00;1700140;82;21048;-67
2022/10/31 05:47:59;;;;;;;5.72;0.90;;;;;;;6.81;100.00;99663.80;1762571;79;21027;-66
2022/10/31 05:50:44;;;;;;;5.08;1.12;;;;;;;6.80;100.00;99674.88;1750036;79;21004;-67
2022/10/31 05:53:11;;;;;;;3.30;0.90;;;;;;;6.90;100.00;99672.31;1758282;79;21519;-66
2022/10/31 05:55:40;;;;;;;2.95;0.80;;;;;;;6.95;100.00;99677.78;1711975;82;20986;-66
2022/10/31 05:58:11;;;;;;;2.70;0.70;;;;;;;6.94;100.00;99685.08;1774424;79;21085;-69
2022/10/31 06:00:39;;;;;;;5.08;0.70;;;;;;;6.99;100.00;99685.69;1775628;79;21050;-66
2022/10/31 06:03:08;;;;;;;5.25;0.80;;;;;;;7.08;100.00;99681.50;1774583;79;21078;-67
2022/10/31 06:05:42;;;;;;;5.28;0.82;;;;;;;7.11;100.00;99688.30;1751607;80;21101;-69
2022/10/31 06:08:10;;;;;;;4.58;0.80;;;;;;;7.07;100.00;99690.69;1755114;79;21540;-68
2022/10/31 06:10:37;;;;;;;2.47;0.57;;;;;;;7.07;100.00;99695.27;1786133;79;21317;-68
2022/10/31 06:13:06;;;;;;;;;;;;;;;7.17;100.00;99703.00;1759192;79;21577;-68
2022/10/31 06:15:42;;;;;;;4.30;0.68;;;;;;;7.20;100.00;99707.91;1758728;80;20168;-67
2022/10/31 06:18:10;;;;;;;3.95;0.62;;;;;;;7.16;100.00;99708.12;1776640;79;21561;-68
2022/10/31 06:20:40;;;;;;;3.60;0.78;;;;;;;7.18;100.00;99717.36;1769109;79;21019;-68
2022/10/31 06:23:08;;;;;;;1.85;0.50;;;;;;;7.26;100.00;99719.08;1761823;79;21133;-68
2022/10/31 06:25:35;;;;;;;;;;;;;;;7.37;100.00;99718.68;1767425;79;21026;-68
2022/10/31 06:28:04;;;;;;;1.62;0.57;;;;;;;7.35;100.00;99724.37;1769477;79;20138;-69
2022/10/31 06:30:33;;;;;;;3.25;0.78;;;;;;;7.27;100.00;99728.85;1766436;79;21059;-68
2022/10/31 06:33:04;;;;;;;5.55;0.70;;;;;;;7.29;100.00;99729.44;1768234;80;21058;-68
2022/10/31 06:35:31;;;;;;;1.80;0.50;;;;;;;7.31;100.00;99712.39;1763918;79;21329;-67
2022/10/31 06:37:58;;;;;;;1.55;0.40;;;;;;;7.41;100.00;99740.95;1707920;82;21104;-69
2022/10/31 06:40:37;;;;;;;3.60;0.75;;;;;;;7.45;100.00;99735.86;1766519;79;21047;-68
2022/10/31 06:43:17;;;;;;;2.85;0.60;;;;;;;7.43;100.00;99736.13;1771147;79;21066;-69
2022/10/31 07:09:41;;;;;;;4.35;0.60;;;;;;;6.87;100.00;99740.47;1802743;78;22738;-69
2022/10/31 07:12:10;;;;;;;1.95;0.60;;;;;;;6.88;100.00;99752.38;1752799;80;21121;-69
2022/10/31 07:14:39;;;;;;;2.22;0.60;;;;;;;7.04;100.00;99742.62;1730393;81;21036;-70
2022/10/31 07:17:07;;;;;;;2.60;0.45;;;;;;;7.17;100.00;99753.61;1737347;82;22347;-69
2022/10/31 07:19:37;;;;;;;4.05;0.50;;;;;;;7.27;100.00;99757.28;1749100;81;21583;-70
2022/10/31 07:22:04;;;;;;;1.92;0.40;;;;;;;7.38;100.00;99760.95;1735917;82;21533;-70
2022/10/31 07:24:31;;;;;;;0.45;0.30;;;;;;;7.46;100.00;99760.00;1748869;82;21144;-70
2022/10/31 07:27:17;;;;;;;2.25;0.60;;;;;;;7.50;100.00;99757.61;1743651;81;21039;-70
2022/10/31 07:29:45;;;;;;;3.02;0.53;;;;;;;7.55;100.00;99752.23;1742814;81;21045;-72
2022/10/31 07:32:12;;;;;;;2.17;0.30;;;;;;;7.63;100.00;99756.40;1748085;82;21583;-69
2022/10/31 07:34:41;;;;;;;1.07;0.28;;;;;;;7.69;100.00;99749.96;1748285;82;21058;-68
2022/10/31 07:37:12;;;;;;;1.95;0.33;;;;;;;7.73;100.00;99753.28;1737055;81;21094;-69
2022/10/31 07:39:39;;;;;;;2.98;0.40;;;;;;;7.77;100.00;99755.77;1734217;81;21027;-70
2022/10/31 07:42:07;;;;;;;2.90;0.40;;;;;;;7.79;100.00;99754.18;1736511;81;21450;-68
2022/10/31 07:44:35;;;;;;;1.98;0.30;;;;;;;7.86;100.00;99755.63;1707014;83;21074;-69
2022/10/31 07:47:21;;;;;;;4.42;0.40;;;;;;;7.89;100.00;99756.47;1675177;84;21062;-69
2022/10/31 07:50:09;;;;;;;1.82;0.40;;;;;;;7.89;100.00;99755.64;1587026;88;21079;-69
2022/10/31 07:53:07;;;;;;;2.15;0.40;;;;;;;7.91;100.00;99756.20;1566299;90;21109;-70
2022/10/31 07:55:51;;;;;;;1.60;0.30;;;;;;;7.97;100.00;99748.43;1583425;89;21707;-68
2022/10/31 07:58:19;;;;;;;1.37;0.40;;;;;;;8.03;100.00;99758.25;1704813;81;21549;-69
2022/10/31 08:00:47;;;;;;;3.52;0.30;;;;;;;8.05;100.00;99759.33;1743256;80;21899;-70
2022/10/31 08:03:17;;;;;;;4.17;0.42;;;;;;;8.07;100.00;99762.09;1735942;81;21007;-68
2022/10/31 08:05:54;;;;;;;1.90;0.50;;;;;;;8.10;100.00;99758.86;1706463;83;21035;-69
2022/10/31 08:08:41;;;;;;;1.55;0.37;;;;;;;8.15;100.00;99764.33;1681228;84;21079;-68
2022/10/31 08:11:08;;;;;;;2.50;0.50;;;;;;;8.17;100.00;99768.97;1685192;83;21530;-69
2022/10/31 08:13:35;;;;;;;1.22;0.20;;;;;;;8.20;100.00;99770.34;1739084;82;21098;-69
2022/10/31 08:16:07;;;;;;;3.37;0.33;;;;;;;8.25;100.00;99763.10;1732799;82;21113;-69
2022/10/31 08:18:37;;;;;;;1.37;0.30;;;;;;;8.30;100.00;99766.41;1728659;81;21110;-69
2022/10/31 08:21:04;;;;;;;1.55;0.40;;;;;;;8.37;100.00;99769.20;1719987;82;21634;-70
2022/10/31 08:23:31;;;;;;;0.98;0.35;;;;;;;8.45;100.00;99774.70;1713142;82;21111;-70
2022/10/31 08:25:57;;;;;;;;;;;;;;;8.48;100.00;99776.36;1716461;82;21152;-70
2022/10/31 08:28:23;;;;;;;2.02;0.50;;;;;;;8.53;100.00;99776.96;1729557;82;20118;-69
2022/10/31 08:30:52;;;;;;;2.08;0.40;;;;;;;8.48;99.64;99778.25;1717173;82;21655;-70
2022/10/31 08:33:39;;;;;;;0.98;0.33;;;;;;;8.48;99.98;99785.86;1650034;86;21086;-69
2022/10/31 08:36:24;;;;;;;2.67;0.53;;;;;;;8.54;100.00;99785.92;1650695;85;21716;-69
2022/10/31 08:39:09;;;;;;;2.52;0.47;;;;;;;8.60;100.00;99784.35;1706140;82;21131;-71
2022/10/31 08:41:36;;;;;;;2.37;0.53;;;;;;;8.67;99.46;99789.03;1724369;82;21068;-70
2022/10/31 08:44:03;;;;;;;0.90;0.30;;;;;;;8.72;99.31;99787.70;1712899;82;21070;-68
2022/10/31 08:46:30;;;;;;;2.40;0.62;;;;;;;8.77;97.95;99785.58;1708619;82;21668;-69
2022/10/31 08:48:57;;;;;;;1.75;0.45;;;;;;;8.84;97.92;99788.89;1730873;82;21094;-69
2022/10/31 08:51:23;;;;;;;2.47;0.50;;;;;;;8.90;97.78;99793.27;1738069;82;21297;-71
2022/10/31 08:53:52;;;;;;;2.85;0.60;;;;;;;8.93;95.23;99790.86;1739811;82;21568;-70
2022/10/31 08:56:32;;;;;;;0.88;0.30;;;;;;;8.96;94.86;99784.91;1692761;84;21715;-71
2022/10/31 08:59:01;;;;;;;2.52;0.50;;;;;;;9.01;94.32;99788.21;1702703;82;21090;-69
2022/10/31 09:01:35;;;;;;;2.95;0.40;;;;;;;9.01;92.38;99786.85;1684403;82;21564;-73
2022/10/31 09:04:02;;;;;;;2.62;0.40;;;;;;;8.98;90.73;99786.84;1733730;82;21425;-69
2022/10/31 09:14:07;;;;;;;2.25;0.57;;;;;;;8.94;93.16;99774.03;1789609;79;22940;-70
2022/10/31 09:16:35;;;;;;;2.83;0.50;;;;;;;8.94;95.24;99780.83;1736616;81;21526;-72
2022/10/31 09:19:02;;;;;;;1.55;0.68;;;;;;;9.02;95.22;99780.88;1709040;83;21136;-72
2022/10/31 09:21:29;;;;;;;1.60;0.50;;;;;;;9.11;93.24;99777.41;1720389;82;21117;-72
2022/10/31 09:23:57;;;;;;;3.52;0.60;;;;;;;9.13;93.20;99776.62;1716260;83;21086;-72
2022/10/31 09:26:24;;;;;;;2.62;0.45;;;;;;;9.14;91.85;99779.61;1669402;84;21105;-71
2022/10/31 09:29:01;;;;;;;3.72;1.98;;;;;;;9.15;92.16;99769.03;1677221;83;21081;-70
2022/10/31 09:31:29;;;;;;;2.35;0.50;;;;;;;9.15;88.81;99762.23;1681748;85;21115;-70
2022/10/31 09:33:57;;;;;;;3.20;1.67;;;;;;;9.16;87.50;99769.31;1677517;85;21122;-71
2022/10/31 09:36:38;;;;;;;3.25;1.47;;;;;;;9.21;87.84;99769.90;1683783;85;21169;-71
2022/10/31 09:39:07;;;;;;;1.98;1.15;;;;;;;9.30;86.38;99769.13;1692916;84;21685;-70
2022/10/31 09:41:58;;;;;;;3.22;1.77;;;;;;;9.35;82.85;99771.07;1682481;85;21097;-71
2022/10/31 09:44:51;;;;;;;3.33;0.70;;;;;;;9.33;82.28;99774.04;1661586;84;21077;-70
2022/10/31 09:47:40;;;;;;;1.87;0.90;;;;;;;9.31;81.39;99773.50;1681583;84;21113;-70
2022/10/31 09:50:26;;;;;;;5.75;1.37;;;;;;;9.33;80.30;99769.96;1680029;85;21065;-70
2022/10/31 09:53:35;;;;;;;1.50;0.50;;;;;;;9.35;78.96;99785.45;1679683;84;21073;-70
2022/10/31 09:56:05;;;;;;;1.75;0.30;;;;;;;9.36;76.27;99762.64;1632072;87;21158;-70
2022/10/31 09:58:32;;;;;;;1.17;0.50;;;;;;;9.35;75.33;99780.02;1674039;85;21068;-70
2022/10/31 10:01:00;;;;;;;1.37;0.50;;;;;;;9.38;74.51;99765.93;1683130;85;21379;-70
2022/10/31 10:03:34;;;;;;;0.93;0.20;;;;;;;9.40;73.36;99781.95;1681444;84;21627;-70
2022/10/31 10:06:20;;;;;;;1.90;0.30;;;;;;;9.43;72.94;99771.38;1656698;85;21129;-70
2022/10/31 10:08:49;;;;;;;1.60;0.50;;;;;;;9.52;73.65;99783.11;1675141;85;21080;-71
2022/10/31 10:11:42;;;;;;;1.42;0.50;;;;;;;9.57;71.95;99774.44;1672947;85;21110;-70
2022/10/31 10:14:40;;;;;;;2.15;0.40;;;;;;;9.63;72.37;99766.61;1601604;85;21020;-70
2022/10/31 10:17:39;;;;;;;1.40;0.47;;;;;;;9.69;71.11;99769.61;1674518;85;21127;-70
2022/10/31 10:20:23;;;;;;;2.95;0.50;;;;;;;9.72;69.75;99770.97;1661531;85;21633;-70
2022/10/31 10:23:04;;;;;;;0.98;0.40;;;;;;;9.76;69.53;99774.80;1666873;85;21082;-71
2022/10/31 10:25:41;;;;;;;1.17;0.40;;;;;;;9.81;68.40;99778.91;1682327;85;21051;-69
2022/10/31 10:28:27;;;;;;;2.47;0.40;;;;;;;9.82;67.47;99762.86;1675386;85;21554;-71
2022/10/31 10:31:05;;;;;;;0.47;0.20;;;;;;;9.82;65.27;99776.45;1697121;82;21099;-71
2022/10/31 10:33:39;;;;;;;1.32;0.50;;;;;;;9.88;65.97;99782.20;1686744;85;21074;-69
2022/10/31 10:36:13;;;;;;;1.45;0.50;;;;;;;9.97;65.38;99781.95;1714254;83;21093;-70
2022/10/31 10:39:02;;;;;;;1.77;0.30;;;;;;;10.01;62.89;99774.91;1634718;87;21117;-70
2022/10/31 10:41:32;;;;;;;1.45;0.40;;;;;;;10.00;60.46;99765.10;1689067;82;21161;-70
2022/10/31 10:43:58;;;;;;;1.60;0.60;;;;;;;9.91;58.74;99767.53;1710753;82;21099;-71
2022/10/31 10:49:35;;;;;;;3.62;0.68;;;;;;;9.93;59.05;99759.09;1693465;83;21064;-71
2022/10/31 10:52:07;;;;;;;1.60;0.50;;;;;;;10.04;58.14;99771.64;1712239;83;21079;-70
2022/10/31 10:55:05;;;;;;;2.45;0.40;;;;;;;10.15;59.10;99767.08;1690695;83;21114;-70
2022/10/31 10:58:00;;;;;;;2.70;0.40;;;;;;;10.21;57.19;99768.72;1688672;83;21142;-69
2022/10/31 11:00:34;;;;;;;0.70;0.30;;;;;;;10.21;57.32;99767.36;1661324;86;21600;-70
2022/10/31 11:03:00;;;;;;;1.87;0.33;;;;;;;10.25;57.80;99775.27;1688045;83;21680;-70
2022/10/31 11:05:30;;;;;;;;;;;;;;;10.30;57.71;99772.03;1704045;83;21534;-70
2022/10/31 11:07:58;;;;;;;0.95;0.20;;;;;;;10.30;59.34;99774.75;1691121;83;20162;-70
2022/10/31 11:10:25;;;;;;;1.15;0.20;;;;;;;10.28;58.93;99770.11;1714943;83;21047;-71
2022/10/31 11:13:04;;;;;;;2.00;0.47;;;;;;;10.35;55.52;99769.84;1717957;83;21569;-69
2022/10/31 11:15:36;;;;;;;5.72;3.42;;;;;;;10.39;54.57;99757.34;1728776;82;21510;-70
2022/10/31 11:18:04;;;;;;;5.05;2.30;;;;;;;10.45;53.93;99767.16;1724270;82;21073;-70
2022/10/31 11:20:35;;;;;;;3.95;1.32;;;;;;;10.49;52.96;99770.95;1672902;84;21078;-71
2022/10/31 11:23:20;;;;;;;1.75;0.85;;;;;;;10.52;51.49;99772.34;1692370;84;21065;-71
2022/10/31 11:26:04;;;;;;;0.78;0.30;;;;;;;10.53;52.03;99761.70;1693508;84;22308;-69
2022/10/31 11:28:34;;;;;;;1.15;0.40;;;;;;;10.53;52.20;99771.23;1676867;85;21094;-69
2022/10/31 11:31:13;;;;;;;2.22;0.53;;;;;;;10.51;51.67;99776.96;1676494;85;21170;-70
2022/10/31 11:33:51;;;;;;;1.52;0.40;;;;;;;10.56;53.10;99766.63;1651081;85;21625;-69
2022/10/31 11:36:25;;;;;;;0.82;0.40;;;;;;;10.63;53.84;99765.82;1660698;85;21585;-69
2022/10/31 11:38:52;;;;;;;2.50;0.30;;;;;;;10.70;54.72;99763.65;1670999;85;21125;-69
2022/10/31 11:41:28;;;;;;;1.72;0.50;;;;;;;10.72;54.71;99767.73;1671470;84;21723;-70
2022/10/31 11:43:59;;;;;;;2.10;0.40;;;;;;;10.70;54.71;99770.45;1683284;85;21131;-68
2022/10/31 11:46:37;;;;;;;0.93;0.35;;;;;;;10.64;54.30;99763.35;1674782;85;21106;-68
2022/10/31 11:49:03;;;;;;;;;;;;;;;10.61;54.00;99770.16;1678095;85;21608;-68
2022/10/31 11:51:33;;;;;;;0.75;0.30;;;;;;;10.54;54.19;99773.70;1679743;85;20100;-69
2022/10/31 11:54:02;;;;;;;2.25;0.60;;;;;;;10.38;53.40;99766.04;1674127;85;21529;-69
2022/10/31 11:56:39;;;;;;;1.55;0.50;;;;;;;10.31;53.48;99779.09;1676019;84;21978;-69
2022/10/31 11:59:29;;;;;;;2.62;0.33;;;;;;;10.30;54.62;99772.57;1670600;85;21589;-69
2022/10/31 12:01:57;;;;;;;1.52;0.62;;;;;;;10.27;53.85;99773.91;1660845;85;21545;-68
2022/10/31 12:04:41;;;;;;;2.77;0.50;;;;;;;10.23;54.96;99772.02;1683716;85;21034;-69
2022/10/31 12:07:07;;;;;;;1.40;0.40;;;;;;;10.24;55.26;99772.27;1662376;85;21121;-69
2022/10/31 12:09:35;;;;;;;;;;;;;;;10.19;53.59;99774.45;1675269;85;21122;-69
2022/10/31 12:12:29;;;;;;;1.15;0.30;;;;;;;10.13;53.22;99761.87;1675671;84;20130;-68
2022/10/31 12:15:31;;;;;;;1.17;0.30;;;;;;;10.03;54.11;99769.18;1684546;84;21126;-68
2022/10/31 12:18:29;;;;;;;1.45;0.50;;;;;;;10.00;53.81;99780.06;1672965;85;21054;-69
2022/10/31 12:21:21;;;;;;;0.88;0.30;;;;;;;9.98;53.74;99782.23;1673513;84;21636;-68
2022/10/31 12:24:17;;;;;;;1.80;0.50;;;;;;;9.95;54.89;99783.57;1673877;85;21015;-67
2022/10/31 12:27:06;;;;;;;1.10;0.30;;;;;;;9.95;53.83;99789.58;1606165;87;21839;-67
2022/10/31 12:30:02;;;;;;;;;;;;;;;9.96;54.97;99787.11;1679501;84;21050;-68
2022/10/31 12:32:45;;;;;;;1.00;0.40;;;;;;;9.94;54.17;99783.85;1673974;84;20131;-67
2022/10/31 12:35:50;;;;;;;1.47;0.50;;;;;;;9.88;53.96;99783.56;1674335;85;21584;-67
2022/10/31 12:38:49;;;;;;;2.25;0.35;;;;;;;9.87;53.96;99784.64;1674713;85;21097;-68
2022/10/31 12:41:50;;;;;;;4.22;0.40;;;;;;;9.88;53.36;99773.48;1677159;84;21102;-71
2022/10/31 12:44:44;;;;;;;0.98;0.30;;;;;;;9.90;54.14;99782.74;1680924;85;21090;-67